sensor_id;sensor_type;location;lat;lon;timestamp;temperature;humidity
25937;DHT22;13733;51.178;4.450;2023-07-31T00:02:08;17.60;99.90
25937;DHT22;13733;51.178;4.450;2023-07-31T00:04:34;17.50;99.90
25937;DHT22;13733;51.178;4.450;2023-07-31T00:07:00;17.50;99.90
25937;DHT22;13733;51.178;4.450;2023-07-31T00:09:25;17.40;99.90
25937;DHT22;13733;51.178;4.450;2023-07-31T00:11:51;17.40;99.90
25937;DHT22;13733;51.178;4.450;2023-07-31T00:14:17;17.50;99.90
25937;DHT22;13733;51.178;4.450;2023-07-31T00:16:42;17.60;99.90
25937;DHT22;13733;51.178;4.450;2023-07-31T00:19:08;17.60;99.90
25937;DHT22;13733;51.178;4.450;2023-07-31T00:21:34;17.70;99.90
25937;DHT22;13733;51.178;4.450;2023-07-31T00:24:00;17.60;99.90
25937;DHT22;13733;51.178;4.450;2023-07-31T00:26:25;17.50;99.90
25937;DHT22;13733;51.178;4.450;2023-07-31T00:28:51;17.50;99.90
25937;DHT22;13733;51.178;4.450;2023-07-31T00:31:17;17.50;99.90
25937;DHT22;13733;51.178;4.450;2023-07-31T00:33:42;17.60;99.90
25937;DHT22;13733;51.178;4.450;2023-07-31T00:36:08;17.50;99.90
25937;DHT22;13733;51.178;4.450;2023-07-31T00:38:34;17.50;99.90
25937;DHT22;13733;51.178;4.450;2023-07-31T00:40:59;17.70;99.90
25937;DHT22;13733;51.178;4.450;2023-07-31T00:43:25;17.50;99.90
25937;DHT22;13733;51.178;4.450;2023-07-31T00:45:51;17.60;99.90
25937;DHT22;13733;51.178;4.450;2023-07-31T00:48:17;17.70;99.90
25937;DHT22;13733;51.178;4.450;2023-07-31T00:50:43;17.70;99.90
25937;DHT22;13733;51.178;4.450;2023-07-31T00:53:09;17.80;99.90
25937;DHT22;13733;51.178;4.450;2023-07-31T00:55:34;17.80;99.90
25937;DHT22;13733;51.178;4.450;2023-07-31T00:58:00;17.80;99.90
25937;DHT22;13733;51.178;4.450;2023-07-31T01:00:26;17.70;99.90
25937;DHT22;13733;51.178;4.450;2023-07-31T01:02:52;17.80;99.90
25937;DHT22;13733;51.178;4.450;2023-07-31T01:05:29;17.80;99.90
25937;DHT22;13733;51.178;4.450;2023-07-31T01:10:57;17.90;99.90
25937;DHT22;13733;51.178;4.450;2023-07-31T01:13:24;17.90;99.90
25937;DHT22;13733;51.178;4.450;2023-07-31T01:15:50;17.90;99.90
25937;DHT22;13733;51.178;4.450;2023-07-31T01:18:16;17.70;99.90
25937;DHT22;13733;51.178;4.450;2023-07-31T01:20:42;17.80;99.90
25937;DHT22;13733;51.178;4.450;2023-07-31T01:23:23;17.90;99.90
25937;DHT22;13733;51.178;4.450;2023-07-31T01:29:16;17.90;99.90
25937;DHT22;13733;51.178;4.450;2023-07-31T01:31:25;17.70;99.90
25937;DHT22;13733;51.178;4.450;2023-07-31T01:33:55;17.60;99.90
25937;DHT22;13733;51.178;4.450;2023-07-31T01:36:22;17.60;99.90
25937;DHT22;13733;51.178;4.450;2023-07-31T01:38:48;17.70;99.90
25937;DHT22;13733;51.178;4.450;2023-07-31T01:41:17;17.80;99.90
25937;DHT22;13733;51.178;4.450;2023-07-31T01:43:42;17.90;99.90
25937;DHT22;13733;51.178;4.450;2023-07-31T01:46:08;17.90;99.90
25937;DHT22;13733;51.178;4.450;2023-07-31T01:48:34;17.70;99.90
25937;DHT22;13733;51.178;4.450;2023-07-31T01:51:02;17.80;99.90
25937;DHT22;13733;51.178;4.450;2023-07-31T01:53:30;17.70;99.90
25937;DHT22;13733;51.178;4.450;2023-07-31T01:55:56;17.70;99.90
25937;DHT22;13733;51.178;4.450;2023-07-31T01:58:22;17.80;99.90
25937;DHT22;13733;51.178;4.450;2023-07-31T02:00:48;17.80;99.90
25937;DHT22;13733;51.178;4.450;2023-07-31T02:03:14;17.90;99.90
25937;DHT22;13733;51.178;4.450;2023-07-31T02:05:49;17.80;99.90
25937;DHT22;13733;51.178;4.450;2023-07-31T02:08:15;17.70;99.90
25937;DHT22;13733;51.178;4.450;2023-07-31T02:10:41;17.70;99.90
25937;DHT22;13733;51.178;4.450;2023-07-31T02:13:07;17.50;99.90
25937;DHT22;13733;51.178;4.450;2023-07-31T02:15:33;17.40;99.90
25937;DHT22;13733;51.178;4.450;2023-07-31T02:17:59;17.30;99.90
25937;DHT22;13733;51.178;4.450;2023-07-31T02:20:25;17.30;99.90
25937;DHT22;13733;51.178;4.450;2023-07-31T02:22:51;17.40;99.90
25937;DHT22;13733;51.178;4.450;2023-07-31T02:25:16;17.30;99.90
25937;DHT22;13733;51.178;4.450;2023-07-31T02:27:44;17.30;99.90
25937;DHT22;13733;51.178;4.450;2023-07-31T02:30:11;17.30;99.90
25937;DHT22;13733;51.178;4.450;2023-07-31T02:32:36;17.40;99.90
25937;DHT22;13733;51.178;4.450;2023-07-31T02:35:02;17.50;99.90
25937;DHT22;13733;51.178;4.450;2023-07-31T02:37:28;17.50;99.90
25937;DHT22;13733;51.178;4.450;2023-07-31T02:39:55;17.50;99.90
25937;DHT22;13733;51.178;4.450;2023-07-31T02:42:20;17.40;99.90
25937;DHT22;13733;51.178;4.450;2023-07-31T02:44:47;17.50;99.90
25937;DHT22;13733;51.178;4.450;2023-07-31T02:47:13;17.50;99.90
25937;DHT22;13733;51.178;4.450;2023-07-31T02:49:39;17.50;99.90
25937;DHT22;13733;51.178;4.450;2023-07-31T02:52:05;17.50;99.90
25937;DHT22;13733;51.178;4.450;2023-07-31T02:54:31;17.50;99.90
25937;DHT22;13733;51.178;4.450;2023-07-31T02:56:57;17.50;99.90
25937;DHT22;13733;51.178;4.450;2023-07-31T02:59:22;17.50;99.90
25937;DHT22;13733;51.178;4.450;2023-07-31T03:01:48;17.70;99.90
25937;DHT22;13733;51.178;4.450;2023-07-31T03:04:14;17.80;99.90
25937;DHT22;13733;51.178;4.450;2023-07-31T03:06:40;17.80;99.90
25937;DHT22;13733;51.178;4.450;2023-07-31T03:09:05;17.90;99.90
25937;DHT22;13733;51.178;4.450;2023-07-31T03:11:31;17.80;99.90
25937;DHT22;13733;51.178;4.450;2023-07-31T03:13:57;17.90;99.90
25937;DHT22;13733;51.178;4.450;2023-07-31T03:16:23;17.80;99.90
25937;DHT22;13733;51.178;4.450;2023-07-31T03:18:49;17.90;99.90
25937;DHT22;13733;51.178;4.450;2023-07-31T03:21:14;18.00;99.90
25937;DHT22;13733;51.178;4.450;2023-07-31T03:23:40;18.00;99.90
25937;DHT22;13733;51.178;4.450;2023-07-31T03:26:07;18.10;99.90
25937;DHT22;13733;51.178;4.450;2023-07-31T03:28:33;18.10;99.90
25937;DHT22;13733;51.178;4.450;2023-07-31T03:30:59;17.90;99.90
25937;DHT22;13733;51.178;4.450;2023-07-31T03:33:25;17.80;99.90
25937;DHT22;13733;51.178;4.450;2023-07-31T03:35:52;17.70;99.90
25937;DHT22;13733;51.178;4.450;2023-07-31T03:38:18;17.70;99.90
25937;DHT22;13733;51.178;4.450;2023-07-31T03:40:44;17.80;99.90
25937;DHT22;13733;51.178;4.450;2023-07-31T03:43:10;17.80;99.90
25937;DHT22;13733;51.178;4.450;2023-07-31T03:45:38;17.90;99.90
25937;DHT22;13733;51.178;4.450;2023-07-31T03:48:04;18.10;99.90
25937;DHT22;13733;51.178;4.450;2023-07-31T03:50:30;18.00;99.90
25937;DHT22;13733;51.178;4.450;2023-07-31T03:52:56;18.00;99.90
25937;DHT22;13733;51.178;4.450;2023-07-31T03:55:22;18.00;99.90
25937;DHT22;13733;51.178;4.450;2023-07-31T03:57:47;17.90;99.90
25937;DHT22;13733;51.178;4.450;2023-07-31T04:00:14;18.00;99.90
25937;DHT22;13733;51.178;4.450;2023-07-31T04:02:40;18.10;99.90
25937;DHT22;13733;51.178;4.450;2023-07-31T04:05:07;18.00;99.90
25937;DHT22;13733;51.178;4.450;2023-07-31T04:07:33;17.70;99.90
25937;DHT22;13733;51.178;4.450;2023-07-31T04:10:00;17.70;99.90
25937;DHT22;13733;51.178;4.450;2023-07-31T04:12:26;17.50;99.90
25937;DHT22;13733;51.178;4.450;2023-07-31T04:14:51;17.40;99.90
25937;DHT22;13733;51.178;4.450;2023-07-31T04:17:18;17.40;99.90
25937;DHT22;13733;51.178;4.450;2023-07-31T04:19:43;17.30;99.90
25937;DHT22;13733;51.178;4.450;2023-07-31T04:22:09;17.20;99.90
25937;DHT22;13733;51.178;4.450;2023-07-31T04:24:35;17.10;99.90
25937;DHT22;13733;51.178;4.450;2023-07-31T04:27:01;17.10;99.90
25937;DHT22;13733;51.178;4.450;2023-07-31T04:29:27;17.00;99.90
25937;DHT22;13733;51.178;4.450;2023-07-31T04:31:52;16.90;99.90
25937;DHT22;13733;51.178;4.450;2023-07-31T04:34:18;16.90;99.90
25937;DHT22;13733;51.178;4.450;2023-07-31T04:36:44;16.90;99.90
25937;DHT22;13733;51.178;4.450;2023-07-31T04:39:09;17.00;99.90
25937;DHT22;13733;51.178;4.450;2023-07-31T04:41:35;17.00;99.90
25937;DHT22;13733;51.178;4.450;2023-07-31T04:44:01;17.10;99.90
25937;DHT22;13733;51.178;4.450;2023-07-31T04:46:29;17.00;99.90
25937;DHT22;13733;51.178;4.450;2023-07-31T04:48:54;16.90;99.90
25937;DHT22;13733;51.178;4.450;2023-07-31T04:51:20;16.90;99.90
25937;DHT22;13733;51.178;4.450;2023-07-31T04:53:46;17.00;99.90
25937;DHT22;13733;51.178;4.450;2023-07-31T04:56:12;17.10;99.90
25937;DHT22;13733;51.178;4.450;2023-07-31T04:58:38;17.10;99.90
25937;DHT22;13733;51.178;4.450;2023-07-31T05:01:04;17.10;99.90
25937;DHT22;13733;51.178;4.450;2023-07-31T05:03:29;17.10;99.90
25937;DHT22;13733;51.178;4.450;2023-07-31T05:05:55;17.00;99.90
25937;DHT22;13733;51.178;4.450;2023-07-31T05:08:21;17.00;99.90
25937;DHT22;13733;51.178;4.450;2023-07-31T05:10:47;17.10;99.90
25937;DHT22;13733;51.178;4.450;2023-07-31T05:13:13;17.20;99.90
25937;DHT22;13733;51.178;4.450;2023-07-31T05:15:39;17.10;99.90
25937;DHT22;13733;51.178;4.450;2023-07-31T05:18:06;17.00;99.90
25937;DHT22;13733;51.178;4.450;2023-07-31T05:20:32;17.00;99.90
25937;DHT22;13733;51.178;4.450;2023-07-31T05:22:58;16.90;99.90
25937;DHT22;13733;51.178;4.450;2023-07-31T05:25:24;17.00;99.90
25937;DHT22;13733;51.178;4.450;2023-07-31T05:27:50;17.00;99.90
25937;DHT22;13733;51.178;4.450;2023-07-31T05:30:16;17.00;99.90
25937;DHT22;13733;51.178;4.450;2023-07-31T05:32:42;17.00;99.90
25937;DHT22;13733;51.178;4.450;2023-07-31T05:35:08;17.00;99.90
25937;DHT22;13733;51.178;4.450;2023-07-31T05:37:34;17.00;99.90
25937;DHT22;13733;51.178;4.450;2023-07-31T05:40:00;17.00;99.90
25937;DHT22;13733;51.178;4.450;2023-07-31T05:42:26;16.90;99.90
25937;DHT22;13733;51.178;4.450;2023-07-31T05:44:52;16.90;99.90
25937;DHT22;13733;51.178;4.450;2023-07-31T05:47:17;16.90;99.90
25937;DHT22;13733;51.178;4.450;2023-07-31T05:49:44;17.10;99.90
25937;DHT22;13733;51.178;4.450;2023-07-31T05:52:10;17.10;99.90
25937;DHT22;13733;51.178;4.450;2023-07-31T05:54:36;17.10;99.90
25937;DHT22;13733;51.178;4.450;2023-07-31T05:57:02;17.10;99.90
25937;DHT22;13733;51.178;4.450;2023-07-31T05:59:28;17.10;99.90
25937;DHT22;13733;51.178;4.450;2023-07-31T06:01:54;17.10;99.90
25937;DHT22;13733;51.178;4.450;2023-07-31T06:04:19;17.00;99.90
25937;DHT22;13733;51.178;4.450;2023-07-31T06:06:45;17.00;99.90
25937;DHT22;13733;51.178;4.450;2023-07-31T06:09:11;17.00;99.90
25937;DHT22;13733;51.178;4.450;2023-07-31T06:11:37;17.10;99.90
25937;DHT22;13733;51.178;4.450;2023-07-31T06:14:03;17.20;99.90
25937;DHT22;13733;51.178;4.450;2023-07-31T06:16:28;17.20;99.90
25937;DHT22;13733;51.178;4.450;2023-07-31T06:18:54;17.20;99.90
25937;DHT22;13733;51.178;4.450;2023-07-31T06:21:20;17.20;99.90
25937;DHT22;13733;51.178;4.450;2023-07-31T06:23:46;17.30;99.90
25937;DHT22;13733;51.178;4.450;2023-07-31T06:26:11;17.10;99.90
25937;DHT22;13733;51.178;4.450;2023-07-31T06:28:37;17.20;99.90
25937;DHT22;13733;51.178;4.450;2023-07-31T06:31:03;17.30;99.90
25937;DHT22;13733;51.178;4.450;2023-07-31T06:33:29;17.20;99.90
25937;DHT22;13733;51.178;4.450;2023-07-31T06:35:55;17.20;99.90
25937;DHT22;13733;51.178;4.450;2023-07-31T06:38:25;17.30;99.90
25937;DHT22;13733;51.178;4.450;2023-07-31T06:40:51;17.30;99.90
25937;DHT22;13733;51.178;4.450;2023-07-31T06:43:17;17.40;99.90
25937;DHT22;13733;51.178;4.450;2023-07-31T06:45:43;17.50;99.90
25937;DHT22;13733;51.178;4.450;2023-07-31T06:48:09;17.70;99.90
25937;DHT22;13733;51.178;4.450;2023-07-31T06:50:35;17.70;99.90
25937;DHT22;13733;51.178;4.450;2023-07-31T06:53:01;17.70;99.90
25937;DHT22;13733;51.178;4.450;2023-07-31T06:55:28;17.70;99.90
25937;DHT22;13733;51.178;4.450;2023-07-31T06:57:55;17.70;99.90
25937;DHT22;13733;51.178;4.450;2023-07-31T07:00:22;17.70;99.90
25937;DHT22;13733;51.178;4.450;2023-07-31T07:02:48;17.80;99.90
25937;DHT22;13733;51.178;4.450;2023-07-31T07:05:15;17.80;99.90
25937;DHT22;13733;51.178;4.450;2023-07-31T07:07:41;17.80;99.90
25937;DHT22;13733;51.178;4.450;2023-07-31T07:10:08;17.80;99.90
25937;DHT22;13733;51.178;4.450;2023-07-31T07:12:34;17.80;99.90
25937;DHT22;13733;51.178;4.450;2023-07-31T07:15:01;17.70;99.90
25937;DHT22;13733;51.178;4.450;2023-07-31T07:17:29;17.80;99.90
25937;DHT22;13733;51.178;4.450;2023-07-31T07:19:58;17.80;99.90
25937;DHT22;13733;51.178;4.450;2023-07-31T07:22:24;17.70;99.90
25937;DHT22;13733;51.178;4.450;2023-07-31T07:24:51;17.60;99.90
25937;DHT22;13733;51.178;4.450;2023-07-31T07:27:17;17.60;99.90
25937;DHT22;13733;51.178;4.450;2023-07-31T07:29:43;17.60;99.90
25937;DHT22;13733;51.178;4.450;2023-07-31T07:32:09;17.80;99.90
25937;DHT22;13733;51.178;4.450;2023-07-31T07:34:35;17.90;99.90
25937;DHT22;13733;51.178;4.450;2023-07-31T07:37:00;17.90;99.90
25937;DHT22;13733;51.178;4.450;2023-07-31T07:39:26;18.00;99.90
25937;DHT22;13733;51.178;4.450;2023-07-31T07:41:52;18.00;99.90
25937;DHT22;13733;51.178;4.450;2023-07-31T07:44:19;18.00;99.90
25937;DHT22;13733;51.178;4.450;2023-07-31T07:46:45;18.00;99.90
25937;DHT22;13733;51.178;4.450;2023-07-31T07:49:10;18.10;99.90
25937;DHT22;13733;51.178;4.450;2023-07-31T07:51:36;18.20;99.90
25937;DHT22;13733;51.178;4.450;2023-07-31T07:54:02;18.20;99.90
25937;DHT22;13733;51.178;4.450;2023-07-31T07:56:28;18.30;99.90
25937;DHT22;13733;51.178;4.450;2023-07-31T07:58:54;18.40;99.90
25937;DHT22;13733;51.178;4.450;2023-07-31T08:01:20;18.60;99.90
25937;DHT22;13733;51.178;4.450;2023-07-31T08:03:47;18.80;99.90
25937;DHT22;13733;51.178;4.450;2023-07-31T08:06:14;18.90;99.90
25937;DHT22;13733;51.178;4.450;2023-07-31T08:08:40;19.20;99.90
25937;DHT22;13733;51.178;4.450;2023-07-31T08:11:06;19.40;99.90
25937;DHT22;13733;51.178;4.450;2023-07-31T08:13:32;19.30;99.90
25937;DHT22;13733;51.178;4.450;2023-07-31T08:15:58;19.30;99.90
25937;DHT22;13733;51.178;4.450;2023-07-31T08:18:23;19.40;99.90
25937;DHT22;13733;51.178;4.450;2023-07-31T08:20:49;19.30;99.90
25937;DHT22;13733;51.178;4.450;2023-07-31T08:23:15;19.40;99.90
25937;DHT22;13733;51.178;4.450;2023-07-31T08:25:41;19.30;99.90
25937;DHT22;13733;51.178;4.450;2023-07-31T08:28:07;19.20;99.90
25937;DHT22;13733;51.178;4.450;2023-07-31T08:30:33;19.20;99.90
25937;DHT22;13733;51.178;4.450;2023-07-31T08:33:00;19.40;99.90
25937;DHT22;13733;51.178;4.450;2023-07-31T08:35:26;19.40;99.90
25937;DHT22;13733;51.178;4.450;2023-07-31T08:37:54;19.50;99.90
25937;DHT22;13733;51.178;4.450;2023-07-31T08:40:20;19.60;99.90
25937;DHT22;13733;51.178;4.450;2023-07-31T08:42:49;19.80;99.90
25937;DHT22;13733;51.178;4.450;2023-07-31T08:45:18;19.60;99.90
25937;DHT22;13733;51.178;4.450;2023-07-31T08:47:50;19.60;99.90
25937;DHT22;13733;51.178;4.450;2023-07-31T08:50:18;19.30;99.90
25937;DHT22;13733;51.178;4.450;2023-07-31T08:52:45;19.10;99.90
25937;DHT22;13733;51.178;4.450;2023-07-31T08:55:11;19.10;99.90
25937;DHT22;13733;51.178;4.450;2023-07-31T08:57:38;19.00;99.90
25937;DHT22;13733;51.178;4.450;2023-07-31T09:00:05;19.30;99.90
25937;DHT22;13733;51.178;4.450;2023-07-31T09:02:46;19.20;99.90
25937;DHT22;13733;51.178;4.450;2023-07-31T09:05:14;19.30;99.90
25937;DHT22;13733;51.178;4.450;2023-07-31T09:07:44;19.50;99.90
25937;DHT22;13733;51.178;4.450;2023-07-31T09:10:12;19.70;99.90
25937;DHT22;13733;51.178;4.450;2023-07-31T09:12:39;19.70;99.90
25937;DHT22;13733;51.178;4.450;2023-07-31T09:15:06;19.90;99.90
25937;DHT22;13733;51.178;4.450;2023-07-31T09:17:33;20.00;99.90
25937;DHT22;13733;51.178;4.450;2023-07-31T09:20:32;20.00;99.90
25937;DHT22;13733;51.178;4.450;2023-07-31T09:23:09;20.20;99.90
25937;DHT22;13733;51.178;4.450;2023-07-31T09:25:36;20.20;99.90
25937;DHT22;13733;51.178;4.450;2023-07-31T09:28:04;20.20;99.90
25937;DHT22;13733;51.178;4.450;2023-07-31T09:30:30;20.40;99.90
25937;DHT22;13733;51.178;4.450;2023-07-31T09:33:06;20.60;99.90
25937;DHT22;13733;51.178;4.450;2023-07-31T09:35:36;20.60;99.90
25937;DHT22;13733;51.178;4.450;2023-07-31T09:38:10;20.60;99.90
25937;DHT22;13733;51.178;4.450;2023-07-31T09:40:38;20.60;99.90
25937;DHT22;13733;51.178;4.450;2023-07-31T09:43:10;20.70;99.90
25937;DHT22;13733;51.178;4.450;2023-07-31T09:45:39;20.80;99.90
25937;DHT22;13733;51.178;4.450;2023-07-31T09:48:10;21.30;99.90
25937;DHT22;13733;51.178;4.450;2023-07-31T09:50:42;21.20;99.90
25937;DHT22;13733;51.178;4.450;2023-07-31T09:53:09;21.40;99.90
25937;DHT22;13733;51.178;4.450;2023-07-31T09:55:36;21.20;99.90
25937;DHT22;13733;51.178;4.450;2023-07-31T09:58:05;21.10;99.90
25937;DHT22;13733;51.178;4.450;2023-07-31T10:00:31;20.90;99.90
25937;DHT22;13733;51.178;4.450;2023-07-31T10:03:02;20.60;99.90
25937;DHT22;13733;51.178;4.450;2023-07-31T10:05:36;20.70;99.90
25937;DHT22;13733;51.178;4.450;2023-07-31T10:08:02;20.30;99.90
25937;DHT22;13733;51.178;4.450;2023-07-31T10:10:28;20.20;99.90
25937;DHT22;13733;51.178;4.450;2023-07-31T10:12:56;20.10;99.90
25937;DHT22;13733;51.178;4.450;2023-07-31T10:15:23;20.10;99.90
25937;DHT22;13733;51.178;4.450;2023-07-31T10:17:51;19.90;99.90
25937;DHT22;13733;51.178;4.450;2023-07-31T10:20:17;19.90;99.90
25937;DHT22;13733;51.178;4.450;2023-07-31T10:22:44;19.90;99.90
25937;DHT22;13733;51.178;4.450;2023-07-31T10:25:12;19.80;99.90
25937;DHT22;13733;51.178;4.450;2023-07-31T10:27:41;19.90;99.90
25937;DHT22;13733;51.178;4.450;2023-07-31T10:30:14;19.90;99.90
25937;DHT22;13733;51.178;4.450;2023-07-31T10:32:41;20.00;99.90
25937;DHT22;13733;51.178;4.450;2023-07-31T10:35:09;20.10;99.90
25937;DHT22;13733;51.178;4.450;2023-07-31T10:37:42;20.00;99.90
25937;DHT22;13733;51.178;4.450;2023-07-31T10:40:13;19.90;99.90
25937;DHT22;13733;51.178;4.450;2023-07-31T10:45:14;19.40;99.90
25937;DHT22;13733;51.178;4.450;2023-07-31T10:47:49;19.40;99.90
25937;DHT22;13733;51.178;4.450;2023-07-31T10:50:23;19.60;99.90
25937;DHT22;13733;51.178;4.450;2023-07-31T10:52:50;19.60;99.90
25937;DHT22;13733;51.178;4.450;2023-07-31T10:55:27;19.50;99.90
25937;DHT22;13733;51.178;4.450;2023-07-31T10:58:04;19.50;99.90
25937;DHT22;13733;51.178;4.450;2023-07-31T11:00:30;19.70;99.90
25937;DHT22;13733;51.178;4.450;2023-07-31T11:02:57;20.00;99.90
25937;DHT22;13733;51.178;4.450;2023-07-31T11:08:17;20.20;99.90
25937;DHT22;13733;51.178;4.450;2023-07-31T11:10:45;20.20;99.90
25937;DHT22;13733;51.178;4.450;2023-07-31T11:13:11;20.50;99.90
25937;DHT22;13733;51.178;4.450;2023-07-31T11:15:37;20.80;99.90
25937;DHT22;13733;51.178;4.450;2023-07-31T11:18:04;20.80;99.90
25937;DHT22;13733;51.178;4.450;2023-07-31T11:20:32;20.70;99.90
25937;DHT22;13733;51.178;4.450;2023-07-31T11:23:07;20.50;99.90
25937;DHT22;13733;51.178;4.450;2023-07-31T11:25:33;20.30;99.90
25937;DHT22;13733;51.178;4.450;2023-07-31T11:28:07;20.20;99.90
25937;DHT22;13733;51.178;4.450;2023-07-31T11:30:33;20.00;99.90
25937;DHT22;13733;51.178;4.450;2023-07-31T11:33:01;20.00;99.90
25937;DHT22;13733;51.178;4.450;2023-07-31T11:35:32;20.10;99.90
25937;DHT22;13733;51.178;4.450;2023-07-31T11:37:58;19.90;99.90
25937;DHT22;13733;51.178;4.450;2023-07-31T11:40:24;20.00;99.90
25937;DHT22;13733;51.178;4.450;2023-07-31T11:43:04;20.20;99.90
25937;DHT22;13733;51.178;4.450;2023-07-31T11:45:30;20.30;99.90
25937;DHT22;13733;51.178;4.450;2023-07-31T11:47:57;20.20;99.90
25937;DHT22;13733;51.178;4.450;2023-07-31T11:50:26;20.30;99.90
25937;DHT22;13733;51.178;4.450;2023-07-31T11:52:57;20.30;99.90
25937;DHT22;13733;51.178;4.450;2023-07-31T11:55:24;20.40;99.90
25937;DHT22;13733;51.178;4.450;2023-07-31T11:57:52;20.30;99.90
25937;DHT22;13733;51.178;4.450;2023-07-31T12:00:19;20.30;99.90
25937;DHT22;13733;51.178;4.450;2023-07-31T12:02:46;20.30;99.90
25937;DHT22;13733;51.178;4.450;2023-07-31T12:05:13;20.60;99.90
25937;DHT22;13733;51.178;4.450;2023-07-31T12:07:53;20.90;99.90
25937;DHT22;13733;51.178;4.450;2023-07-31T12:10:38;21.00;99.90
25937;DHT22;13733;51.178;4.450;2023-07-31T12:13:20;21.00;99.90
25937;DHT22;13733;51.178;4.450;2023-07-31T12:15:46;21.30;99.90
25937;DHT22;13733;51.178;4.450;2023-07-31T12:18:20;21.60;99.90
25937;DHT22;13733;51.178;4.450;2023-07-31T12:20:48;22.10;99.90
25937;DHT22;13733;51.178;4.450;2023-07-31T12:23:19;22.20;99.90
25937;DHT22;13733;51.178;4.450;2023-07-31T12:26:06;22.20;99.90
25937;DHT22;13733;51.178;4.450;2023-07-31T12:28:36;22.20;99.90
25937;DHT22;13733;51.178;4.450;2023-07-31T12:31:04;22.10;99.90
25937;DHT22;13733;51.178;4.450;2023-07-31T12:33:37;22.10;99.90
25937;DHT22;13733;51.178;4.450;2023-07-31T12:36:16;22.00;99.90
25937;DHT22;13733;51.178;4.450;2023-07-31T12:38:43;22.00;99.90
25937;DHT22;13733;51.178;4.450;2023-07-31T12:41:09;21.70;99.90
25937;DHT22;13733;51.178;4.450;2023-07-31T12:43:35;21.60;99.90
25937;DHT22;13733;51.178;4.450;2023-07-31T12:46:01;21.60;99.90
25937;DHT22;13733;51.178;4.450;2023-07-31T12:48:27;21.40;99.90
25937;DHT22;13733;51.178;4.450;2023-07-31T12:50:53;21.40;99.90
25937;DHT22;13733;51.178;4.450;2023-07-31T12:53:18;21.20;99.90
25937;DHT22;13733;51.178;4.450;2023-07-31T12:55:44;21.10;99.90
25937;DHT22;13733;51.178;4.450;2023-07-31T12:58:10;20.90;99.90
25937;DHT22;13733;51.178;4.450;2023-07-31T13:00:36;20.80;99.90
25937;DHT22;13733;51.178;4.450;2023-07-31T13:03:02;21.00;99.90
25937;DHT22;13733;51.178;4.450;2023-07-31T13:05:28;21.00;99.90
25937;DHT22;13733;51.178;4.450;2023-07-31T13:07:54;21.00;99.90
25937;DHT22;13733;51.178;4.450;2023-07-31T13:10:21;20.90;99.90
25937;DHT22;13733;51.178;4.450;2023-07-31T13:12:47;21.00;99.90
25937;DHT22;13733;51.178;4.450;2023-07-31T13:15:14;21.00;99.90
25937;DHT22;13733;51.178;4.450;2023-07-31T13:17:40;20.80;99.90
25937;DHT22;13733;51.178;4.450;2023-07-31T13:20:06;20.80;99.90
25937;DHT22;13733;51.178;4.450;2023-07-31T13:22:32;20.60;99.90
25937;DHT22;13733;51.178;4.450;2023-07-31T13:24:58;20.50;99.90
25937;DHT22;13733;51.178;4.450;2023-07-31T13:27:24;20.30;99.90
25937;DHT22;13733;51.178;4.450;2023-07-31T13:29:51;20.20;99.90
25937;DHT22;13733;51.178;4.450;2023-07-31T13:32:18;20.00;99.90
25937;DHT22;13733;51.178;4.450;2023-07-31T13:34:44;19.90;99.90
25937;DHT22;13733;51.178;4.450;2023-07-31T13:37:10;19.80;99.90
25937;DHT22;13733;51.178;4.450;2023-07-31T13:39:36;19.60;99.90
25937;DHT22;13733;51.178;4.450;2023-07-31T13:42:03;19.70;99.90
25937;DHT22;13733;51.178;4.450;2023-07-31T13:44:32;19.60;99.90
25937;DHT22;13733;51.178;4.450;2023-07-31T13:46:58;19.50;99.90
25937;DHT22;13733;51.178;4.450;2023-07-31T13:49:24;19.40;99.90
25937;DHT22;13733;51.178;4.450;2023-07-31T13:51:50;19.30;99.90
25937;DHT22;13733;51.178;4.450;2023-07-31T13:54:15;19.30;99.90
25937;DHT22;13733;51.178;4.450;2023-07-31T13:56:43;19.40;99.90
25937;DHT22;13733;51.178;4.450;2023-07-31T13:59:10;19.40;99.90
25937;DHT22;13733;51.178;4.450;2023-07-31T14:01:36;19.30;99.90
25937;DHT22;13733;51.178;4.450;2023-07-31T14:04:02;19.20;99.90
25937;DHT22;13733;51.178;4.450;2023-07-31T14:06:28;19.20;99.90
25937;DHT22;13733;51.178;4.450;2023-07-31T14:08:54;19.10;99.90
25937;DHT22;13733;51.178;4.450;2023-07-31T14:11:22;19.10;99.90
25937;DHT22;13733;51.178;4.450;2023-07-31T14:13:48;19.10;99.90
25937;DHT22;13733;51.178;4.450;2023-07-31T14:16:13;19.00;99.90
25937;DHT22;13733;51.178;4.450;2023-07-31T14:18:39;18.90;99.90
25937;DHT22;13733;51.178;4.450;2023-07-31T14:21:05;18.90;99.90
25937;DHT22;13733;51.178;4.450;2023-07-31T14:23:31;18.90;99.90
25937;DHT22;13733;51.178;4.450;2023-07-31T14:25:57;19.00;99.90
25937;DHT22;13733;51.178;4.450;2023-07-31T14:28:23;18.90;99.90
25937;DHT22;13733;51.178;4.450;2023-07-31T14:30:49;18.70;99.90
25937;DHT22;13733;51.178;4.450;2023-07-31T14:33:14;18.60;99.90
25937;DHT22;13733;51.178;4.450;2023-07-31T14:35:40;18.50;99.90
25937;DHT22;13733;51.178;4.450;2023-07-31T14:38:06;18.60;99.90
25937;DHT22;13733;51.178;4.450;2023-07-31T14:40:32;18.60;99.90
25937;DHT22;13733;51.178;4.450;2023-07-31T14:42:58;18.70;99.90
25937;DHT22;13733;51.178;4.450;2023-07-31T14:45:24;18.70;99.90
25937;DHT22;13733;51.178;4.450;2023-07-31T14:47:49;18.60;99.90
25937;DHT22;13733;51.178;4.450;2023-07-31T14:50:15;18.50;99.90
25937;DHT22;13733;51.178;4.450;2023-07-31T14:52:41;18.50;99.90
25937;DHT22;13733;51.178;4.450;2023-07-31T14:55:07;18.40;99.90
25937;DHT22;13733;51.178;4.450;2023-07-31T14:57:34;18.40;99.90
25937;DHT22;13733;51.178;4.450;2023-07-31T15:00:00;18.50;99.90
25937;DHT22;13733;51.178;4.450;2023-07-31T15:02:26;18.60;99.90
25937;DHT22;13733;51.178;4.450;2023-07-31T15:04:53;18.50;99.90
25937;DHT22;13733;51.178;4.450;2023-07-31T15:07:19;18.50;99.90
25937;DHT22;13733;51.178;4.450;2023-07-31T15:09:44;18.60;99.90
25937;DHT22;13733;51.178;4.450;2023-07-31T15:12:10;18.60;99.90
25937;DHT22;13733;51.178;4.450;2023-07-31T15:14:36;18.60;99.90
25937;DHT22;13733;51.178;4.450;2023-07-31T15:17:02;18.60;99.90
25937;DHT22;13733;51.178;4.450;2023-07-31T15:19:27;18.50;99.90
25937;DHT22;13733;51.178;4.450;2023-07-31T15:21:54;18.40;99.90
25937;DHT22;13733;51.178;4.450;2023-07-31T15:24:20;18.40;99.90
25937;DHT22;13733;51.178;4.450;2023-07-31T15:26:46;18.40;99.90
25937;DHT22;13733;51.178;4.450;2023-07-31T15:29:12;18.40;99.90
25937;DHT22;13733;51.178;4.450;2023-07-31T15:31:43;18.60;99.90
25937;DHT22;13733;51.178;4.450;2023-07-31T15:34:09;18.40;99.90
25937;DHT22;13733;51.178;4.450;2023-07-31T15:36:35;18.50;99.90
25937;DHT22;13733;51.178;4.450;2023-07-31T15:39:00;18.50;99.90
25937;DHT22;13733;51.178;4.450;2023-07-31T15:41:26;18.50;99.90